createdAt,value
2019-01-16T00:00:50.246Z,100212.07
2019-01-16T00:02:14.310Z,100212.98
2019-01-16T00:03:35.373Z,100205.05
2019-01-16T00:05:11.375Z,100205.95
2019-01-16T00:06:41.526Z,100209.08
2019-01-16T00:08:14.553Z,100212.59
2019-01-16T00:09:28.880Z,100216.50
2019-01-16T00:10:47.655Z,100214.81
2019-01-16T00:12:03.473Z,100218.57
2019-01-16T00:13:15.718Z,100217.80
2019-01-16T00:14:33.518Z,100220.01
2019-01-16T00:15:47.300Z,100217.41
2019-01-16T00:17:06.941Z,100213.37
2019-01-16T00:18:43.076Z,100217.27
2019-01-16T00:20:03.165Z,100207.78
2019-01-16T00:21:12.330Z,100214.28
2019-01-16T00:22:34.850Z,100210.00
2019-01-16T00:23:55.246Z,100207.39
2019-01-16T00:25:09.097Z,100215.20
2019-01-16T00:26:32.916Z,100206.62
2019-01-16T00:27:53.015Z,100208.69
2019-01-16T00:29:26.205Z,100217.41
2019-01-16T00:30:46.177Z,100208.69
2019-01-16T00:32:10.248Z,100213.51
2019-01-16T00:33:22.034Z,100206.09
2019-01-16T00:34:41.848Z,100209.86
2019-01-16T00:36:04.561Z,100206.87
2019-01-16T00:37:31.626Z,100213.76
2019-01-16T00:39:07.939Z,100210.77
2019-01-16T00:40:33.762Z,100208.55
2019-01-16T00:41:53.370Z,100204.66
2019-01-16T00:43:32.526Z,100203.36
2019-01-16T00:44:59.447Z,100202.44
2019-01-16T00:46:31.939Z,100205.56
2019-01-16T00:47:53.016Z,100203.74
2019-01-16T00:49:14.023Z,100209.86
2019-01-16T00:50:50.070Z,100202.44
2019-01-16T00:52:13.038Z,100196.85
2019-01-16T00:53:37.140Z,100204.13
2019-01-16T00:55:13.717Z,100195.41
2019-01-16T00:56:43.356Z,100196.85
2019-01-16T00:57:56.183Z,100189.83
2019-01-16T00:59:32.408Z,100192.81
2019-01-16T01:00:46.780Z,100188.14
2019-01-16T01:02:16.491Z,100192.95
2019-01-16T01:03:35.853Z,100190.21
2019-01-16T01:04:55.837Z,100189.30
2019-01-16T01:06:16.905Z,100181.89
2019-01-16T01:07:37.922Z,100185.78
2019-01-16T01:09:08.277Z,100183.58
2019-01-16T01:10:20.988Z,100182.27
2019-01-16T01:11:47.918Z,100186.31
2019-01-16T01:13:12.023Z,100175.38
2019-01-16T01:14:44.787Z,100187.86
2019-01-16T01:16:08.605Z,100178.51
2019-01-16T01:17:35.777Z,100178.51
2019-01-16T01:18:58.468Z,100175.91
2019-01-16T01:20:25.601Z,100182.55
2019-01-16T01:21:53.010Z,100181.89
2019-01-16T01:23:29.387Z,100177.98
2019-01-16T01:24:48.808Z,100177.59
2019-01-16T01:27:42.188Z,100185.02
2019-01-16T01:29:12.479Z,100185.02
2019-01-16T01:30:28.863Z,100183.19
2019-01-16T01:31:49.892Z,100171.48
2019-01-16T01:33:12.463Z,100182.41
2019-01-16T01:34:24.998Z,100178.38
2019-01-16T01:35:46.037Z,100175.91
2019-01-16T01:37:05.948Z,100175.52
2019-01-16T01:38:34.683Z,100182.94
2019-01-16T01:39:47.350Z,100182.94
2019-01-16T01:41:01.095Z,100164.20
2019-01-16T01:42:28.538Z,100174.08
2019-01-16T01:43:48.570Z,100167.58
2019-01-16T01:45:12.363Z,100162.37
2019-01-16T01:46:23.039Z,100170.19
2019-01-16T01:48:02.496Z,100170.95
2019-01-16T01:49:23.611Z,100165.38
2019-01-16T01:50:46.108Z,100174.47
2019-01-16T01:52:07.408Z,100166.67
2019-01-16T01:53:31.282Z,100166.67
2019-01-16T01:54:51.279Z,100172.78
2019-01-16T01:56:12.322Z,100167.06
2019-01-16T01:57:39.303Z,100170.95
2019-01-16T01:58:51.059Z,100169.27
2019-01-16T02:00:13.818Z,100172.39
2019-01-16T02:01:27.943Z,100171.48
2019-01-16T02:02:58.068Z,100167.19
2019-01-16T02:04:09.328Z,100166.67
2019-01-16T02:05:29.033Z,100166.28
2019-01-16T02:06:53.207Z,100172.78
2019-01-16T02:08:16.991Z,100178.38
2019-01-16T02:09:36.879Z,100177.08
2019-01-16T02:10:48.226Z,100175.38
2019-01-16T02:12:09.330Z,100174.47
2019-01-16T02:13:31.384Z,100174.34
2019-01-16T02:14:52.088Z,100173.17
2019-01-16T02:16:19.135Z,100173.17
2019-01-16T02:17:42.904Z,100173.17
2019-01-16T02:18:57.138Z,100165.38
2019-01-16T02:20:17.439Z,100165.50
2019-01-16T02:21:37.147Z,100166.28
2019-01-16T02:22:58.172Z,100170.05
2019-01-16T02:24:19.199Z,100168.74
2019-01-16T02:25:39.191Z,100167.83
2019-01-16T02:26:58.862Z,100166.14
2019-01-16T02:28:15.945Z,100166.01
2019-01-16T02:29:36.982Z,100165.76
2019-01-16T02:30:56.952Z,100167.06
2019-01-16T02:32:10.650Z,100161.86
2019-01-16T02:33:33.241Z,100154.44
2019-01-16T02:34:42.392Z,100160.03
2019-01-16T02:36:12.588Z,100156.27
2019-01-16T02:37:24.238Z,100154.97
2019-01-16T02:38:35.936Z,100151.45
2019-01-16T02:39:48.877Z,100157.05
2019-01-16T02:41:19.072Z,100158.87
2019-01-16T02:42:40.928Z,100151.06
2019-01-16T02:43:57.008Z,100154.97
2019-01-16T02:45:12.684Z,100147.55
2019-01-16T02:46:32.792Z,100144.56
2019-01-16T02:48:00.757Z,100151.45
2019-01-16T02:49:15.979Z,100154.97
2019-01-16T02:50:30.533Z,100142.88
2019-01-16T02:51:54.570Z,100154.19
2019-01-16T02:53:27.558Z,100145.86
2019-01-16T02:54:51.582Z,100148.08
2019-01-16T02:56:13.278Z,100148.08
2019-01-16T02:57:24.734Z,100148.08
2019-01-16T02:58:44.430Z,100142.73
2019-01-16T03:00:17.976Z,100151.06
2019-01-16T03:01:42.039Z,100145.47
2019-01-16T03:03:21.448Z,100134.16
2019-01-16T03:04:41.678Z,100131.95
2019-01-16T03:06:02.820Z,100124.14
2019-01-16T03:07:25.532Z,100129.34
2019-01-16T03:08:46.806Z,100132.86
2019-01-16T03:10:04.672Z,100125.06
2019-01-16T03:11:25.695Z,100125.83
2019-01-16T03:13:01.826Z,100129.88
2019-01-16T03:14:31.725Z,100126.36
2019-01-16T03:15:52.850Z,100129.88
2019-01-16T03:17:16.937Z,100127.66
2019-01-16T03:18:37.114Z,100124.28
2019-01-16T03:20:01.224Z,100124.67
2019-01-16T03:21:34.424Z,100119.98
2019-01-16T03:22:47.986Z,100122.06
2019-01-16T03:24:18.062Z,100117.25
2019-01-16T03:25:44.091Z,100119.47
2019-01-16T03:27:20.737Z,100112.97
2019-01-16T03:28:53.382Z,100119.47
2019-01-16T03:30:19.440Z,100116.34
2019-01-16T03:31:40.457Z,100112.97
2019-01-16T03:33:00.298Z,100113.36
2019-01-16T03:34:14.770Z,100116.48
2019-01-16T03:35:34.394Z,100112.58
2019-01-16T03:37:03.594Z,100106.98
2019-01-16T03:38:30.491Z,100109.59
2019-01-16T03:39:51.527Z,100109.98
2019-01-16T03:41:07.108Z,100111.66
2019-01-16T03:42:30.948Z,100117.39
2019-01-16T03:43:41.393Z,100110.89
2019-01-16T03:45:08.657Z,100113.36
2019-01-16T03:46:20.878Z,100115.56
2019-01-16T03:47:41.914Z,100111.28
2019-01-16T03:49:03.110Z,100115.56
2019-01-16T03:50:27.247Z,100112.97
2019-01-16T03:51:41.376Z,100102.17
2019-01-16T03:52:54.299Z,100111.66
2019-01-16T03:54:21.158Z,100113.36
2019-01-16T03:56:00.560Z,100110.75
2019-01-16T03:57:11.331Z,100100.34
2019-01-16T03:58:33.443Z,100104.77
2019-01-16T03:59:57.359Z,100110.36
2019-01-16T04:01:10.228Z,100110.75
2019-01-16T04:02:34.173Z,100098.66
2019-01-16T04:03:50.167Z,100104.77
2019-01-16T04:04:59.799Z,100097.36
2019-01-16T04:06:22.771Z,100101.78
2019-01-16T04:07:53.067Z,100096.06
2019-01-16T04:09:12.814Z,100093.45
2019-01-16T04:10:32.846Z,100087.48
2019-01-16T04:12:12.233Z,100093.45
2019-01-16T04:13:37.328Z,100087.73
2019-01-16T04:14:57.311Z,100090.86
2019-01-16T04:16:07.474Z,100090.34
2019-01-16T04:17:35.018Z,100090.34
2019-01-16T04:18:59.121Z,100086.83
2019-01-16T04:20:12.809Z,100082.14
2019-01-16T04:21:29.227Z,100088.26
2019-01-16T04:23:02.089Z,100075.64
2019-01-16T04:24:21.980Z,100073.05
2019-01-16T04:25:41.787Z,100076.03
2019-01-16T04:27:18.247Z,100068.63
2019-01-16T04:28:42.702Z,100074.73
2019-01-16T04:29:58.144Z,100071.36
2019-01-16T04:31:21.990Z,100075.64
2019-01-16T04:32:53.066Z,100068.23
2019-01-16T04:34:18.350Z,100060.81
2019-01-16T04:35:36.663Z,100071.74
2019-01-16T04:36:49.574Z,100065.62
2019-01-16T04:38:14.186Z,100059.65
2019-01-16T04:39:34.160Z,100064.85
2019-01-16T04:40:52.291Z,100065.24
2019-01-16T04:42:11.635Z,100060.56
2019-01-16T04:43:24.038Z,100063.55
2019-01-16T04:44:45.069Z,100062.77
2019-01-16T04:46:09.153Z,100065.38
2019-01-16T04:47:23.734Z,100052.77
2019-01-16T04:48:36.482Z,100049.64
2019-01-16T04:49:56.148Z,100055.75
2019-01-16T04:51:11.704Z,100051.84
2019-01-16T04:52:38.660Z,100041.84
2019-01-16T04:54:06.083Z,100047.17
2019-01-16T04:55:19.803Z,100052.38
2019-01-16T04:56:40.838Z,100043.14
2019-01-16T04:58:01.873Z,100038.45
2019-01-16T04:59:26.016Z,100031.95
2019-01-16T05:00:38.582Z,100045.88
2019-01-16T05:02:02.551Z,100039.50
2019-01-16T05:03:29.639Z,100032.48
2019-01-16T05:04:47.294Z,100042.88
2019-01-16T05:06:07.031Z,100036.24
2019-01-16T05:07:30.846Z,100035.08
2019-01-16T05:08:43.958Z,100036.77
2019-01-16T05:10:14.377Z,100032.86
2019-01-16T05:11:35.413Z,100035.47
2019-01-16T05:12:53.280Z,100038.06
2019-01-16T05:14:05.486Z,100032.09
2019-01-16T05:15:16.115Z,100029.48
2019-01-16T05:16:33.155Z,100033.91
2019-01-16T05:18:09.697Z,100037.81
2019-01-16T05:19:38.959Z,100037.03
2019-01-16T05:21:15.622Z,100035.59
2019-01-16T05:22:34.913Z,100031.70
2019-01-16T05:24:01.919Z,100033.52
2019-01-16T05:25:19.278Z,100039.63
2019-01-16T05:26:52.547Z,100041.71
2019-01-16T05:28:15.104Z,100030.53
2019-01-16T05:29:39.210Z,100034.05
2019-01-16T05:31:12.451Z,100034.82
2019-01-16T05:32:45.764Z,100041.98
2019-01-16T05:34:16.687Z,100030.66
2019-01-16T05:35:37.723Z,100029.75
2019-01-16T05:36:58.390Z,100034.17
2019-01-16T05:38:22.338Z,100020.26
2019-01-16T05:39:48.355Z,100027.16
2019-01-16T05:41:09.387Z,100033.78
2019-01-16T05:42:45.803Z,100040.67
2019-01-16T05:44:12.490Z,100027.16
2019-01-16T05:45:32.436Z,100024.68
2019-01-16T05:46:53.469Z,100027.28
2019-01-16T05:48:13.416Z,100022.99
2019-01-16T05:49:31.248Z,100026.54
2019-01-16T05:50:56.946Z,100025.59
2019-01-16T05:52:21.072Z,100025.46
2019-01-16T05:53:33.512Z,100022.47
2019-01-16T05:54:54.595Z,100018.57
2019-01-16T05:56:14.595Z,100015.58
2019-01-16T05:57:47.917Z,100018.18
2019-01-16T05:59:14.694Z,100015.06
2019-01-16T06:00:42.085Z,100018.18
2019-01-16T06:02:06.191Z,100018.18
2019-01-16T06:03:32.996Z,100012.84
2019-01-16T06:04:50.137Z,100008.42
2019-01-16T06:06:11.196Z,100010.77
2019-01-16T06:07:31.029Z,100009.47
2019-01-16T06:08:54.864Z,100004.66
2019-01-16T06:10:10.180Z,100002.44
2019-01-16T06:11:20.127Z,99999.32
2019-01-16T06:12:40.026Z,100003.61
2019-01-16T06:14:03.873Z,100001.92
2019-01-16T06:15:30.980Z,100002.31
2019-01-16T06:16:50.828Z,99998.28
2019-01-16T06:18:14.588Z,100003.48
2019-01-16T06:19:34.675Z,99995.67
2019-01-16T06:20:51.800Z,99997.75
2019-01-16T06:22:09.560Z,100000.48
2019-01-16T06:23:22.338Z,100004.26
2019-01-16T06:24:46.442Z,99981.77
2019-01-16T06:26:10.282Z,99988.27
2019-01-16T06:27:30.250Z,99991.13
2019-01-16T06:28:49.856Z,99990.60
2019-01-16T06:30:06.715Z,99983.58
2019-01-16T06:31:33.888Z,99981.89
2019-01-16T06:32:56.937Z,99988.39
2019-01-16T06:34:21.240Z,99986.95
2019-01-16T06:35:49.492Z,99980.84
2019-01-16T06:37:13.407Z,99993.07
2019-01-16T06:38:52.613Z,99987.34
2019-01-16T06:40:16.234Z,99983.05
2019-01-16T06:41:27.486Z,99966.94
2019-01-16T06:42:46.048Z,99982.92
2019-01-16T06:44:15.344Z,99976.03
2019-01-16T06:45:54.635Z,99972.88
2019-01-16T06:47:02.372Z,99984.75
2019-01-16T06:48:25.502Z,99975.34
2019-01-16T06:49:39.546Z,99974.05
2019-01-16T06:51:04.928Z,99969.63
2019-01-16T06:52:27.147Z,99967.94
2019-01-16T06:53:47.184Z,99969.10
2019-01-16T06:55:14.317Z,99967.80
2019-01-16T06:56:27.510Z,99972.61
2019-01-16T06:57:43.042Z,99972.09
2019-01-16T06:59:00.885Z,99967.80
2019-01-16T07:00:28.066Z,99977.42
2019-01-16T07:01:47.790Z,99972.22
2019-01-16T07:03:07.613Z,99961.56
2019-01-16T07:04:32.451Z,99965.07
2019-01-16T07:05:42.544Z,99965.46
2019-01-16T07:07:09.603Z,99962.86
2019-01-16T07:08:29.622Z,99970.27
2019-01-16T07:09:52.654Z,99960.65
2019-01-16T07:11:22.750Z,99961.95
2019-01-16T07:12:46.707Z,99963.77
2019-01-16T07:14:06.880Z,99954.02
2019-01-16T07:15:35.084Z,99959.22
2019-01-16T07:17:01.863Z,99950.50
2019-01-16T07:18:23.497Z,99954.02
2019-01-16T07:19:50.357Z,99955.31
2019-01-16T07:21:14.254Z,99954.02
2019-01-16T07:22:41.493Z,99945.70
2019-01-16T07:24:00.333Z,99944.39
2019-01-16T07:25:12.523Z,99942.70
2019-01-16T07:26:23.593Z,99945.70
2019-01-16T07:27:53.549Z,99942.70
2019-01-16T07:29:17.613Z,99941.80
2019-01-16T07:30:37.532Z,99935.94
2019-01-16T07:32:01.656Z,99940.75
2019-01-16T07:33:32.033Z,99943.74
2019-01-16T07:34:51.770Z,99943.35
2019-01-16T07:36:11.473Z,99947.64
2019-01-16T07:37:31.230Z,99939.97
2019-01-16T07:38:53.546Z,99945.04
2019-01-16T07:40:15.689Z,99945.04
2019-01-16T07:41:36.779Z,99940.23
2019-01-16T07:43:00.914Z,99945.04
2019-01-16T07:44:23.585Z,99945.04
2019-01-16T07:45:51.867Z,99948.03
2019-01-16T07:47:01.201Z,99943.22
2019-01-16T07:48:12.870Z,99938.02
2019-01-16T07:49:28.385Z,99945.44
2019-01-16T07:50:58.525Z,99937.08
2019-01-16T07:52:18.443Z,99949.72
2019-01-16T07:53:33.484Z,99948.42
2019-01-16T07:54:57.551Z,99948.42
2019-01-16T07:56:17.057Z,99933.95
2019-01-16T07:57:35.774Z,99942.27
2019-01-16T07:58:51.029Z,99943.97
2019-01-16T08:00:06.275Z,99940.45
2019-01-16T08:01:36.469Z,99938.24
2019-01-16T08:02:57.495Z,99934.34
2019-01-16T08:04:17.426Z,99939.55
2019-01-16T08:05:37.181Z,99936.16
2019-01-16T08:07:13.323Z,99942.14
2019-01-16T08:08:34.361Z,99943.97
2019-01-16T08:09:52.728Z,99943.83
2019-01-16T08:11:25.700Z,99935.64
2019-01-16T08:12:52.782Z,99946.44
2019-01-16T08:14:26.144Z,99944.22
2019-01-16T08:15:38.261Z,99939.37
2019-01-16T08:17:00.778Z,99940.32
2019-01-16T08:18:16.915Z,99937.72
2019-01-16T08:19:36.865Z,99939.55
2019-01-16T08:21:21.309Z,99933.27
2019-01-16T08:22:41.160Z,99933.66
2019-01-16T08:23:53.960Z,99941.98
2019-01-16T08:25:20.933Z,99941.06
2019-01-16T08:26:54.451Z,99931.97
2019-01-16T08:28:14.289Z,99934.17
2019-01-16T08:29:50.363Z,99928.98
2019-01-16T08:30:59.560Z,99928.98
2019-01-16T08:32:20.572Z,99931.58
2019-01-16T08:33:40.239Z,99928.98
2019-01-16T08:34:59.499Z,99931.22
2019-01-16T08:36:11.777Z,99923.03
2019-01-16T08:37:30.010Z,99922.48
2019-01-16T08:39:01.030Z,99916.37
2019-01-16T08:40:13.835Z,99922.48
2019-01-16T08:41:32.529Z,99921.95
2019-01-16T08:42:56.338Z,99923.26
2019-01-16T08:44:14.027Z,99920.27
2019-01-16T08:45:31.883Z,99909.48
2019-01-16T08:47:04.867Z,99921.18
2019-01-16T08:48:24.541Z,99913.77
2019-01-16T08:49:44.581Z,99911.17
2019-01-16T08:51:04.578Z,99900.38
2019-01-16T08:52:35.212Z,99909.13
2019-01-16T08:53:59.091Z,99910.03
2019-01-16T08:55:26.266Z,99914.68
2019-01-16T08:57:05.464Z,99906.52
2019-01-16T08:58:32.592Z,99906.88
2019-01-16T08:59:52.644Z,99903.14
2019-01-16T09:01:16.698Z,99907.44
2019-01-16T09:02:35.386Z,99909.13
2019-01-16T09:03:54.963Z,99910.42
2019-01-16T09:05:22.216Z,99909.48
2019-01-16T09:06:36.559Z,99902.63
2019-01-16T09:08:00.509Z,99915.45
2019-01-16T09:09:21.548Z,99908.56
2019-01-16T09:10:40.570Z,99916.37
2019-01-16T09:12:04.440Z,99904.67
2019-01-16T09:13:23.498Z,99912.08
2019-01-16T09:14:43.322Z,99904.84
2019-01-16T09:16:16.254Z,99913.02
2019-01-16T09:17:36.652Z,99912.64
2019-01-16T09:18:57.684Z,99905.75
2019-01-16T09:20:24.238Z,99902.63
2019-01-16T09:21:44.327Z,99910.03
2019-01-16T09:22:55.615Z,99907.27
2019-01-16T09:24:15.496Z,99909.87
2019-01-16T09:25:39.685Z,99898.56
2019-01-16T09:26:50.106Z,99898.56
2019-01-16T09:28:09.841Z,99900.25
2019-01-16T09:29:30.948Z,99901.68
2019-01-16T09:31:00.155Z,99902.63
2019-01-16T09:32:21.183Z,99896.34
2019-01-16T09:33:32.244Z,99904.28
2019-01-16T09:34:48.736Z,99904.28
2019-01-16T09:36:08.684Z,99895.19
2019-01-16T09:37:38.992Z,99882.18
2019-01-16T09:39:00.976Z,99895.57
2019-01-16T09:40:17.250Z,99892.23
2019-01-16T09:41:36.824Z,99885.17
2019-01-16T09:43:03.928Z,99893.87
2019-01-16T09:44:24.039Z,99892.58
2019-01-16T09:45:41.120Z,99883.88
2019-01-16T09:47:01.480Z,99882.05
2019-01-16T09:48:28.395Z,99887.77
2019-01-16T09:49:49.463Z,99875.55
2019-01-16T09:50:59.074Z,99879.06
2019-01-16T09:52:19.472Z,99879.45
2019-01-16T09:53:39.177Z,99875.95
2019-01-16T09:54:53.407Z,99874.64
2019-01-16T09:56:23.203Z,99885.04
2019-01-16T09:57:50.011Z,99882.44
2019-01-16T09:59:09.634Z,99865.94
2019-01-16T10:00:33.416Z,99878.16
2019-01-16T10:02:10.199Z,99866.45
2019-01-16T10:03:34.588Z,99866.23
2019-01-16T10:05:02.224Z,99862.23
2019-01-16T10:06:22.007Z,99847.55
2019-01-16T10:07:45.822Z,99863.53
2019-01-16T10:09:05.814Z,99858.59
2019-01-16T10:10:25.864Z,99852.73
2019-01-16T10:11:46.895Z,99848.22
2019-01-16T10:13:03.749Z,99855.89
2019-01-16T10:14:18.077Z,99855.76
2019-01-16T10:15:38.140Z,99860.30
2019-01-16T10:16:57.946Z,99855.39
2019-01-16T10:18:18.166Z,99853.44
2019-01-16T10:19:48.319Z,99852.66
2019-01-16T10:21:08.983Z,99854.88
2019-01-16T10:22:28.760Z,99847.20
2019-01-16T10:23:48.780Z,99842.38
2019-01-16T10:25:16.389Z,99844.20
2019-01-16T10:26:37.170Z,99849.41
2019-01-16T10:28:04.768Z,99844.59
2019-01-16T10:29:24.675Z,99846.16
2019-01-16T10:30:45.716Z,99840.05
2019-01-16T10:32:09.694Z,99839.92
2019-01-16T10:33:42.880Z,99845.52
2019-01-16T10:35:19.049Z,99823.67
2019-01-16T10:36:40.074Z,99838.33
2019-01-16T10:38:01.108Z,99825.20
2019-01-16T10:39:11.927Z,99823.38
2019-01-16T10:40:31.709Z,99822.08
2019-01-16T10:41:52.739Z,99817.53
2019-01-16T10:43:05.160Z,99814.41
2019-01-16T10:44:28.975Z,99793.48
2019-01-16T10:45:54.138Z,99809.08
2019-01-16T10:47:14.113Z,99800.38
2019-01-16T10:48:37.909Z,99805.96
2019-01-16T10:49:50.993Z,99799.33
2019-01-16T10:51:03.763Z,99798.30
2019-01-16T10:52:15.356Z,99793.84
2019-01-16T10:53:36.893Z,99786.44
2019-01-16T10:54:47.419Z,99784.22
2019-01-16T10:56:04.305Z,99787.09
2019-01-16T10:57:31.503Z,99784.88
2019-01-16T10:59:11.266Z,99788.27
2019-01-16T11:00:44.699Z,99773.83
2019-01-16T11:02:06.072Z,99771.23
2019-01-16T11:03:25.677Z,99767.59
2019-01-16T11:04:45.259Z,99767.59
2019-01-16T11:06:06.653Z,99764.09
2019-01-16T11:07:23.051Z,99760.06
2019-01-16T11:08:56.514Z,99762.66
2019-01-16T11:10:16.643Z,99751.58
2019-01-16T11:11:56.486Z,99761.07
2019-01-16T11:13:17.515Z,99741.58
2019-01-16T11:14:44.063Z,99750.16
2019-01-16T11:16:04.047Z,99750.55
2019-01-16T11:17:19.906Z,99745.70
2019-01-16T11:18:39.750Z,99739.20
2019-01-16T11:20:03.820Z,99738.69
2019-01-16T11:21:16.671Z,99738.16
2019-01-16T11:22:53.010Z,99735.95
2019-01-16T11:24:12.991Z,99736.73
2019-01-16T11:25:32.659Z,99724.91
2019-01-16T11:26:59.391Z,99725.30
2019-01-16T11:28:19.080Z,99723.88
2019-01-16T11:29:52.479Z,99732.59
2019-01-16T11:31:12.526Z,99723.75
2019-01-16T11:32:40.805Z,99721.28
2019-01-16T11:33:59.979Z,99714.66
2019-01-16T11:35:21.585Z,99718.55
2019-01-16T11:36:33.538Z,99715.01
2019-01-16T11:38:01.236Z,99721.16
2019-01-16T11:39:40.654Z,99715.01
2019-01-16T11:41:20.235Z,99712.19
2019-01-16T11:42:44.757Z,99712.83
2019-01-16T11:44:04.521Z,99709.31
2019-01-16T11:45:31.790Z,99716.64
2019-01-16T11:46:45.827Z,99694.80
2019-01-16T11:48:05.605Z,99692.58
2019-01-16T11:49:22.807Z,99693.73
2019-01-16T11:50:41.643Z,99688.42
2019-01-16T11:52:08.579Z,99684.78
2019-01-16T11:53:29.261Z,99681.91
2019-01-16T11:54:45.667Z,99686.05
2019-01-16T11:56:12.738Z,99684.65
2019-01-16T11:57:36.824Z,99680.08
2019-01-16T11:58:54.684Z,99675.01
2019-01-16T12:00:13.747Z,99678.25
2019-01-16T12:01:33.493Z,99685.66
2019-01-16T12:02:55.594Z,99683.57
2019-01-16T12:04:13.487Z,99678.77
2019-01-16T12:05:34.916Z,99664.06
2019-01-16T12:07:02.068Z,99682.66
2019-01-16T12:08:23.131Z,99679.16
2019-01-16T12:09:43.105Z,99675.91
2019-01-16T12:11:11.162Z,99671.11
2019-01-16T12:12:38.194Z,99674.49
2019-01-16T12:14:02.992Z,99674.49
2019-01-16T12:15:23.193Z,99666.17
2019-01-16T12:16:54.207Z,99669.44
2019-01-16T12:18:13.053Z,99666.31
2019-01-16T12:19:36.316Z,99669.67
2019-01-16T12:20:56.328Z,99672.14
2019-01-16T12:22:12.897Z,99659.53
2019-01-16T12:23:30.488Z,99673.72
2019-01-16T12:24:48.150Z,99664.09
2019-01-16T12:26:15.353Z,99658.77
2019-01-16T12:27:31.770Z,99645.64
2019-01-16T12:28:52.800Z,99660.73
2019-01-16T12:30:16.936Z,99665.42
2019-01-16T12:31:41.120Z,99661.91
2019-01-16T12:33:09.907Z,99671.24
2019-01-16T12:34:32.536Z,99662.02
2019-01-16T12:36:12.134Z,99657.59
2019-01-16T12:37:51.578Z,99648.38
2019-01-16T12:39:25.400Z,99666.97
2019-01-16T12:40:45.993Z,99635.25
2019-01-16T12:42:07.092Z,99623.42
2019-01-16T12:43:26.965Z,99632.41
2019-01-16T12:44:52.257Z,99634.61
2019-01-16T12:46:13.284Z,99627.47
2019-01-16T12:47:34.359Z,99626.95
2019-01-16T12:48:54.300Z,99635.15
2019-01-16T12:50:05.113Z,99622.50
2019-01-16T12:51:25.102Z,99619.00
2019-01-16T12:52:54.233Z,99630.70
2019-01-16T12:54:13.655Z,99624.98
2019-01-16T12:55:47.997Z,99624.08
2019-01-16T12:56:59.316Z,99622.22
2019-01-16T12:58:19.014Z,99623.52
2019-01-16T12:59:49.410Z,99616.50
2019-01-16T13:01:12.845Z,99615.86
2019-01-16T13:02:26.689Z,99622.88
2019-01-16T13:03:39.821Z,99614.44
2019-01-16T13:05:10.693Z,99613.27
2019-01-16T13:08:00.856Z,99608.34
2019-01-16T13:09:26.248Z,99606.52
2019-01-16T13:10:46.244Z,99603.02
2019-01-16T13:12:06.093Z,99600.80
2019-01-16T13:13:45.314Z,99598.59
2019-01-16T13:15:18.522Z,99593.80
2019-01-16T13:16:30.280Z,99576.89
2019-01-16T13:17:54.066Z,99595.34
2019-01-16T13:19:24.025Z,99592.20
2019-01-16T13:20:47.201Z,99591.19
2019-01-16T13:22:06.927Z,99600.30
2019-01-16T13:23:27.941Z,99591.95
2019-01-16T13:25:04.121Z,99583.63
2019-01-16T13:26:22.397Z,99583.51
2019-01-16T13:27:42.255Z,99579.85
2019-01-16T13:29:02.901Z,99575.80
2019-01-16T13:30:28.200Z,99554.33
2019-01-16T13:31:42.373Z,99589.33
2019-01-16T13:33:02.485Z,99569.16
2019-01-16T13:34:35.704Z,99573.30
2019-01-16T13:35:51.483Z,99582.01
2019-01-16T13:37:15.542Z,99566.13
2019-01-16T13:38:36.583Z,99561.44
2019-01-16T13:39:48.310Z,99569.24
2019-01-16T13:41:01.341Z,99557.93
2019-01-16T13:42:31.654Z,99564.44
2019-01-16T13:43:58.833Z,99559.11
2019-01-16T13:45:37.958Z,99563.28
2019-01-16T13:46:49.497Z,99572.78
2019-01-16T13:48:06.925Z,99573.05
2019-01-16T13:49:25.363Z,99566.04
2019-01-16T13:50:44.013Z,99569.81
2019-01-16T13:52:18.898Z,99568.00
2019-01-16T13:53:35.705Z,99574.34
2019-01-16T13:55:08.876Z,99564.22
2019-01-16T13:56:27.226Z,99575.41
2019-01-16T13:57:46.942Z,99570.08
2019-01-16T13:59:12.690Z,99569.96
2019-01-16T14:00:39.913Z,99550.73
2019-01-16T14:01:49.121Z,99561.92
2019-01-16T14:03:12.633Z,99558.80
2019-01-16T14:04:32.699Z,99552.70
2019-01-16T14:05:57.773Z,99554.39
2019-01-16T14:07:13.908Z,99549.81
2019-01-16T14:08:37.706Z,99546.70
2019-01-16T14:10:01.999Z,99551.39
2019-01-16T14:11:29.120Z,99546.97
2019-01-16T14:12:49.438Z,99552.56
2019-01-16T14:14:07.511Z,99548.55
2019-01-16T14:15:27.751Z,99551.53
2019-01-16T14:16:51.449Z,99536.72
2019-01-16T14:18:18.811Z,99552.59
2019-01-16T14:19:38.953Z,99536.87
2019-01-16T14:20:53.326Z,99524.66
2019-01-16T14:22:13.405Z,99531.91
2019-01-16T14:23:33.392Z,99524.89
2019-01-16T14:25:06.418Z,99528.80
2019-01-16T14:26:29.997Z,99524.73
2019-01-16T14:27:55.620Z,99539.04
2019-01-16T14:29:15.511Z,99545.41
2019-01-16T14:30:35.482Z,99535.02
2019-01-16T14:31:53.012Z,99516.30
2019-01-16T14:33:17.673Z,99525.28
2019-01-16T14:34:41.035Z,99523.86
2019-01-16T14:35:54.347Z,99524.64
2019-01-16T14:37:25.685Z,99519.45
2019-01-16T14:38:52.517Z,99525.03
2019-01-16T14:40:12.481Z,99528.42
2019-01-16T14:41:32.863Z,99524.52
2019-01-16T14:42:59.977Z,99530.47
2019-01-16T14:44:20.056Z,99529.17
2019-01-16T14:45:53.467Z,99527.75
2019-01-16T14:47:06.736Z,99530.73
2019-01-16T14:48:26.457Z,99532.43
2019-01-16T14:49:37.124Z,99525.54
2019-01-16T14:50:53.216Z,99527.75
2019-01-16T14:52:15.754Z,99515.66
2019-01-16T14:53:39.847Z,99516.33
2019-01-16T14:55:05.875Z,99525.80
2019-01-16T14:56:20.782Z,99528.28
2019-01-16T14:57:42.718Z,99525.56
2019-01-16T14:58:55.976Z,99521.64
2019-01-16T15:00:29.307Z,99514.59
2019-01-16T15:01:49.378Z,99523.58
2019-01-16T15:03:09.163Z,99516.92
2019-01-16T15:04:36.257Z,99518.47
2019-01-16T15:06:03.447Z,99510.52
2019-01-16T15:07:21.058Z,99510.78
2019-01-16T15:08:40.848Z,99507.52
2019-01-16T15:10:00.548Z,99513.35
2019-01-16T15:11:15.054Z,99499.95
2019-01-16T15:12:39.262Z,99498.77
2019-01-16T15:14:04.225Z,99505.39
2019-01-16T15:15:25.281Z,99496.80
2019-01-16T15:16:52.138Z,99504.22
2019-01-16T15:18:12.123Z,99500.70
2019-01-16T15:19:33.178Z,99516.70
2019-01-16T15:20:52.938Z,99507.09
2019-01-16T15:22:17.072Z,99502.16
2019-01-16T15:23:36.712Z,99507.76
2019-01-16T15:24:43.813Z,99503.34
2019-01-16T15:26:10.948Z,99494.00
2019-01-16T15:27:30.626Z,99495.19
2019-01-16T15:28:49.973Z,99492.43
2019-01-16T15:30:23.464Z,99497.00
2019-01-16T15:31:43.382Z,99488.68
2019-01-16T15:32:57.792Z,99492.46
2019-01-16T15:34:09.574Z,99477.65
2019-01-16T15:35:42.989Z,99474.02
2019-01-16T15:37:10.132Z,99475.72
2019-01-16T15:38:37.192Z,99476.77
2019-01-16T15:39:47.912Z,99483.13
2019-01-16T15:41:08.930Z,99478.59
2019-01-16T15:42:38.921Z,99475.98
2019-01-16T15:44:05.234Z,99474.57
2019-01-16T15:45:29.344Z,99477.95
2019-01-16T15:46:56.644Z,99473.15
2019-01-16T15:48:16.369Z,99480.44
2019-01-16T15:49:36.285Z,99469.13
2019-01-16T15:50:56.255Z,99473.30
2019-01-16T15:52:15.739Z,99458.88
2019-01-16T15:53:43.829Z,99458.73
2019-01-16T15:55:11.601Z,99465.63
2019-01-16T15:56:51.084Z,99484.21
2019-01-16T15:58:22.527Z,99451.20